sensor_id;sensor_type;location;lat;lon;timestamp;temperature;humidity
10344;DHT22;5217;43.960;10.954;2023-04-03T00:01:32;16.60;83.00
10344;DHT22;5217;43.960;10.954;2023-04-03T00:04:00;16.50;83.10
10344;DHT22;5217;43.960;10.954;2023-04-03T00:06:30;16.50;83.20
10344;DHT22;5217;43.960;10.954;2023-04-03T00:08:59;16.50;83.30
10344;DHT22;5217;43.960;10.954;2023-04-03T00:11:27;16.50;83.20
10344;DHT22;5217;43.960;10.954;2023-04-03T00:13:55;16.50;83.00
10344;DHT22;5217;43.960;10.954;2023-04-03T00:16:24;16.50;82.80
10344;DHT22;5217;43.960;10.954;2023-04-03T00:18:52;16.50;82.90
10344;DHT22;5217;43.960;10.954;2023-04-03T00:21:20;16.50;83.30
10344;DHT22;5217;43.960;10.954;2023-04-03T00:23:50;16.50;83.60
10344;DHT22;5217;43.960;10.954;2023-04-03T00:26:18;16.50;83.70
10344;DHT22;5217;43.960;10.954;2023-04-03T00:28:47;16.50;83.80
10344;DHT22;5217;43.960;10.954;2023-04-03T00:31:16;16.40;83.80
10344;DHT22;5217;43.960;10.954;2023-04-03T00:33:44;16.40;84.00
10344;DHT22;5217;43.960;10.954;2023-04-03T00:36:13;16.40;84.10
10344;DHT22;5217;43.960;10.954;2023-04-03T00:38:41;16.40;83.90
10344;DHT22;5217;43.960;10.954;2023-04-03T00:41:11;16.40;83.80
10344;DHT22;5217;43.960;10.954;2023-04-03T00:43:39;16.40;83.90
10344;DHT22;5217;43.960;10.954;2023-04-03T00:46:08;16.30;83.70
10344;DHT22;5217;43.960;10.954;2023-04-03T00:48:38;16.40;83.50
10344;DHT22;5217;43.960;10.954;2023-04-03T00:51:11;16.40;83.40
10344;DHT22;5217;43.960;10.954;2023-04-03T00:53:44;16.40;83.30
10344;DHT22;5217;43.960;10.954;2023-04-03T00:56:17;16.40;83.10
10344;DHT22;5217;43.960;10.954;2023-04-03T00:58:49;16.40;82.30
10344;DHT22;5217;43.960;10.954;2023-04-03T01:01:21;16.40;82.50
10344;DHT22;5217;43.960;10.954;2023-04-03T01:03:50;16.40;81.30
10344;DHT22;5217;43.960;10.954;2023-04-03T01:06:23;16.50;81.40
10344;DHT22;5217;43.960;10.954;2023-04-03T01:08:53;16.40;81.40
10344;DHT22;5217;43.960;10.954;2023-04-03T01:11:24;16.40;81.30
10344;DHT22;5217;43.960;10.954;2023-04-03T01:13:53;16.50;81.40
10344;DHT22;5217;43.960;10.954;2023-04-03T01:16:21;16.50;80.90
10344;DHT22;5217;43.960;10.954;2023-04-03T01:18:50;16.50;80.30
10344;DHT22;5217;43.960;10.954;2023-04-03T01:22:02;16.50;80.20
10344;DHT22;5217;43.960;10.954;2023-04-03T01:24:35;16.50;80.10
10344;DHT22;5217;43.960;10.954;2023-04-03T01:27:09;16.60;80.30
10344;DHT22;5217;43.960;10.954;2023-04-03T01:29:39;16.50;79.30
10344;DHT22;5217;43.960;10.954;2023-04-03T01:32:10;16.50;79.30
10344;DHT22;5217;43.960;10.954;2023-04-03T01:34:38;16.50;79.70
10344;DHT22;5217;43.960;10.954;2023-04-03T01:37:07;16.60;79.60
10344;DHT22;5217;43.960;10.954;2023-04-03T01:39:35;16.60;79.70
10344;DHT22;5217;43.960;10.954;2023-04-03T01:42:04;16.50;79.90
10344;DHT22;5217;43.960;10.954;2023-04-03T01:44:33;16.50;80.20
10344;DHT22;5217;43.960;10.954;2023-04-03T01:47:01;16.50;80.60
10344;DHT22;5217;43.960;10.954;2023-04-03T01:49:31;16.50;80.80
10344;DHT22;5217;43.960;10.954;2023-04-03T01:51:59;16.50;80.50
10344;DHT22;5217;43.960;10.954;2023-04-03T01:54:28;16.50;80.20
10344;DHT22;5217;43.960;10.954;2023-04-03T01:56:57;16.50;79.90
10344;DHT22;5217;43.960;10.954;2023-04-03T01:59:25;16.50;79.30
10344;DHT22;5217;43.960;10.954;2023-04-03T02:01:55;16.50;79.20
10344;DHT22;5217;43.960;10.954;2023-04-03T02:04:23;16.50;79.30
10344;DHT22;5217;43.960;10.954;2023-04-03T02:06:53;16.50;79.30
10344;DHT22;5217;43.960;10.954;2023-04-03T02:09:22;16.50;79.30
10344;DHT22;5217;43.960;10.954;2023-04-03T02:11:50;16.50;79.60
10344;DHT22;5217;43.960;10.954;2023-04-03T02:14:19;16.50;79.60
10344;DHT22;5217;43.960;10.954;2023-04-03T02:16:48;16.50;80.20
10344;DHT22;5217;43.960;10.954;2023-04-03T02:19:17;16.50;80.30
10344;DHT22;5217;43.960;10.954;2023-04-03T02:21:46;16.40;79.80
10344;DHT22;5217;43.960;10.954;2023-04-03T02:24:16;16.40;79.90
10344;DHT22;5217;43.960;10.954;2023-04-03T02:26:44;16.40;80.50
10344;DHT22;5217;43.960;10.954;2023-04-03T02:29:13;16.40;81.00
10344;DHT22;5217;43.960;10.954;2023-04-03T02:31:41;16.30;81.20
10344;DHT22;5217;43.960;10.954;2023-04-03T02:34:10;16.40;81.30
10344;DHT22;5217;43.960;10.954;2023-04-03T02:36:38;16.30;80.80
10344;DHT22;5217;43.960;10.954;2023-04-03T02:39:07;16.30;80.90
10344;DHT22;5217;43.960;10.954;2023-04-03T02:41:37;16.30;81.10
10344;DHT22;5217;43.960;10.954;2023-04-03T02:44:08;16.30;81.20
10344;DHT22;5217;43.960;10.954;2023-04-03T02:46:37;16.30;81.20
10344;DHT22;5217;43.960;10.954;2023-04-03T02:49:06;16.30;81.20
10344;DHT22;5217;43.960;10.954;2023-04-03T02:51:34;16.30;81.20
10344;DHT22;5217;43.960;10.954;2023-04-03T02:54:03;16.30;81.10
10344;DHT22;5217;43.960;10.954;2023-04-03T02:56:31;16.30;81.20
10344;DHT22;5217;43.960;10.954;2023-04-03T02:59:00;16.30;81.20
10344;DHT22;5217;43.960;10.954;2023-04-03T03:01:29;16.20;81.10
10344;DHT22;5217;43.960;10.954;2023-04-03T03:03:59;16.30;81.50
10344;DHT22;5217;43.960;10.954;2023-04-03T03:06:28;16.20;81.40
10344;DHT22;5217;43.960;10.954;2023-04-03T03:08:56;16.20;80.80
10344;DHT22;5217;43.960;10.954;2023-04-03T03:11:24;16.30;80.50
10344;DHT22;5217;43.960;10.954;2023-04-03T03:13:53;16.30;80.80
10344;DHT22;5217;43.960;10.954;2023-04-03T03:16:23;16.30;81.20
10344;DHT22;5217;43.960;10.954;2023-04-03T03:18:51;16.30;81.20
10344;DHT22;5217;43.960;10.954;2023-04-03T03:21:19;16.30;80.80
10344;DHT22;5217;43.960;10.954;2023-04-03T03:23:48;16.30;80.30
10344;DHT22;5217;43.960;10.954;2023-04-03T03:26:16;16.30;80.20
10344;DHT22;5217;43.960;10.954;2023-04-03T03:28:44;16.30;80.20
10344;DHT22;5217;43.960;10.954;2023-04-03T03:31:13;16.30;80.60
10344;DHT22;5217;43.960;10.954;2023-04-03T03:33:43;16.30;81.20
10344;DHT22;5217;43.960;10.954;2023-04-03T03:36:12;16.30;81.40
10344;DHT22;5217;43.960;10.954;2023-04-03T03:38:40;16.20;82.00
10344;DHT22;5217;43.960;10.954;2023-04-03T03:41:08;16.20;82.30
10344;DHT22;5217;43.960;10.954;2023-04-03T03:43:37;16.20;82.60
10344;DHT22;5217;43.960;10.954;2023-04-03T03:46:05;16.20;83.20
10344;DHT22;5217;43.960;10.954;2023-04-03T03:48:33;16.10;83.00
10344;DHT22;5217;43.960;10.954;2023-04-03T03:51:03;16.10;82.80
10344;DHT22;5217;43.960;10.954;2023-04-03T03:53:31;16.10;83.20
10344;DHT22;5217;43.960;10.954;2023-04-03T03:56:00;16.10;83.40
10344;DHT22;5217;43.960;10.954;2023-04-03T03:58:28;16.00;83.60
10344;DHT22;5217;43.960;10.954;2023-04-03T04:00:57;16.00;83.90
10344;DHT22;5217;43.960;10.954;2023-04-03T04:03:27;16.00;82.60
10344;DHT22;5217;43.960;10.954;2023-04-03T04:05:56;16.00;83.10
10344;DHT22;5217;43.960;10.954;2023-04-03T04:08:25;16.00;83.40
10344;DHT22;5217;43.960;10.954;2023-04-03T04:10:54;16.00;83.60
10344;DHT22;5217;43.960;10.954;2023-04-03T04:13:22;16.00;83.90
10344;DHT22;5217;43.960;10.954;2023-04-03T04:15:50;15.90;83.90
10344;DHT22;5217;43.960;10.954;2023-04-03T04:18:19;15.90;84.20
10344;DHT22;5217;43.960;10.954;2023-04-03T04:20:49;15.90;84.50
10344;DHT22;5217;43.960;10.954;2023-04-03T04:23:18;15.90;84.70
10344;DHT22;5217;43.960;10.954;2023-04-03T04:25:49;15.90;84.90
10344;DHT22;5217;43.960;10.954;2023-04-03T04:28:18;15.80;85.10
10344;DHT22;5217;43.960;10.954;2023-04-03T04:30:46;15.80;85.60
10344;DHT22;5217;43.960;10.954;2023-04-03T04:33:15;15.80;85.50
10344;DHT22;5217;43.960;10.954;2023-04-03T04:35:43;15.80;85.50
10344;DHT22;5217;43.960;10.954;2023-04-03T04:38:11;15.80;85.60
10344;DHT22;5217;43.960;10.954;2023-04-03T04:40:40;15.70;85.70
10344;DHT22;5217;43.960;10.954;2023-04-03T04:43:10;15.70;85.90
10344;DHT22;5217;43.960;10.954;2023-04-03T04:45:41;15.70;86.00
10344;DHT22;5217;43.960;10.954;2023-04-03T04:48:09;15.70;86.10
10344;DHT22;5217;43.960;10.954;2023-04-03T04:50:38;15.60;86.10
10344;DHT22;5217;43.960;10.954;2023-04-03T04:53:06;15.60;86.50
10344;DHT22;5217;43.960;10.954;2023-04-03T04:55:35;15.60;86.50
10344;DHT22;5217;43.960;10.954;2023-04-03T04:58:04;15.60;86.50
10344;DHT22;5217;43.960;10.954;2023-04-03T05:00:34;15.60;86.60
10344;DHT22;5217;43.960;10.954;2023-04-03T05:03:02;15.60;86.50
10344;DHT22;5217;43.960;10.954;2023-04-03T05:05:30;15.60;86.50
10344;DHT22;5217;43.960;10.954;2023-04-03T05:07:59;15.50;86.50
10344;DHT22;5217;43.960;10.954;2023-04-03T05:10:27;15.50;86.50
10344;DHT22;5217;43.960;10.954;2023-04-03T05:12:55;15.50;86.40
10344;DHT22;5217;43.960;10.954;2023-04-03T05:15:24;15.60;86.70
10344;DHT22;5217;43.960;10.954;2023-04-03T05:17:53;15.50;86.60
10344;DHT22;5217;43.960;10.954;2023-04-03T05:20:22;15.50;86.80
10344;DHT22;5217;43.960;10.954;2023-04-03T05:22:50;15.50;87.00
10344;DHT22;5217;43.960;10.954;2023-04-03T05:25:18;15.50;87.10
10344;DHT22;5217;43.960;10.954;2023-04-03T05:27:47;15.70;96.90
10344;DHT22;5217;43.960;10.954;2023-04-03T05:30:16;15.70;94.20
10344;DHT22;5217;43.960;10.954;2023-04-03T05:32:44;15.50;96.90
10344;DHT22;5217;43.960;10.954;2023-04-03T05:35:14;14.90;96.00
10344;DHT22;5217;43.960;10.954;2023-04-03T05:37:42;15.80;96.50
10344;DHT22;5217;43.960;10.954;2023-04-03T05:40:11;15.40;88.00
10344;DHT22;5217;43.960;10.954;2023-04-03T05:42:39;15.70;96.60
10344;DHT22;5217;43.960;10.954;2023-04-03T05:45:08;15.30;96.20
10344;DHT22;5217;43.960;10.954;2023-04-03T05:47:37;17.20;95.70
10344;DHT22;5217;43.960;10.954;2023-04-03T05:50:06;15.20;95.80
10344;DHT22;5217;43.960;10.954;2023-04-03T05:52:37;15.30;96.30
10344;DHT22;5217;43.960;10.954;2023-04-03T05:55:07;15.50;96.50
10344;DHT22;5217;43.960;10.954;2023-04-03T05:57:35;15.70;96.60
10344;DHT22;5217;43.960;10.954;2023-04-03T06:00:06;15.40;88.70
10344;DHT22;5217;43.960;10.954;2023-04-03T06:02:36;15.40;88.90
10344;DHT22;5217;43.960;10.954;2023-04-03T06:05:05;15.40;89.10
10344;DHT22;5217;43.960;10.954;2023-04-03T06:07:35;15.40;89.10
10344;DHT22;5217;43.960;10.954;2023-04-03T06:10:05;15.40;89.30
10344;DHT22;5217;43.960;10.954;2023-04-03T06:12:33;15.40;89.40
10344;DHT22;5217;43.960;10.954;2023-04-03T06:15:02;15.40;89.50
10344;DHT22;5217;43.960;10.954;2023-04-03T06:17:31;15.40;89.70
10344;DHT22;5217;43.960;10.954;2023-04-03T06:19:59;15.40;89.60
10344;DHT22;5217;43.960;10.954;2023-04-03T06:22:28;15.70;97.50
10344;DHT22;5217;43.960;10.954;2023-04-03T06:24:59;15.20;95.90
10344;DHT22;5217;43.960;10.954;2023-04-03T06:27:27;15.50;89.50
10344;DHT22;5217;43.960;10.954;2023-04-03T06:29:56;15.40;89.50
10344;DHT22;5217;43.960;10.954;2023-04-03T06:32:24;15.50;89.70
10344;DHT22;5217;43.960;10.954;2023-04-03T06:34:53;15.50;89.70
10344;DHT22;5217;43.960;10.954;2023-04-03T06:37:22;15.50;89.50
10344;DHT22;5217;43.960;10.954;2023-04-03T06:39:52;15.50;89.60
10344;DHT22;5217;43.960;10.954;2023-04-03T06:42:23;15.50;89.80
10344;DHT22;5217;43.960;10.954;2023-04-03T06:44:51;15.50;89.80
10344;DHT22;5217;43.960;10.954;2023-04-03T06:47:20;15.60;89.90
10344;DHT22;5217;43.960;10.954;2023-04-03T06:49:48;15.60;89.40
10344;DHT22;5217;43.960;10.954;2023-04-03T06:52:16;15.60;88.50
10344;DHT22;5217;43.960;10.954;2023-04-03T06:54:45;15.70;87.90
10344;DHT22;5217;43.960;10.954;2023-04-03T06:57:14;15.70;87.20
10344;DHT22;5217;43.960;10.954;2023-04-03T06:59:44;15.80;86.80
10344;DHT22;5217;43.960;10.954;2023-04-03T07:02:12;15.80;86.80
10344;DHT22;5217;43.960;10.954;2023-04-03T07:04:40;15.80;86.90
10344;DHT22;5217;43.960;10.954;2023-04-03T07:07:08;15.80;86.80
10344;DHT22;5217;43.960;10.954;2023-04-03T07:09:37;15.90;86.90
10344;DHT22;5217;43.960;10.954;2023-04-03T07:12:05;15.90;86.80
10344;DHT22;5217;43.960;10.954;2023-04-03T07:14:34;15.90;86.80
10344;DHT22;5217;43.960;10.954;2023-04-03T07:17:03;16.00;86.50
10344;DHT22;5217;43.960;10.954;2023-04-03T07:19:32;16.00;84.90
10344;DHT22;5217;43.960;10.954;2023-04-03T07:22:00;16.00;84.40
10344;DHT22;5217;43.960;10.954;2023-04-03T07:24:29;16.00;83.50
10344;DHT22;5217;43.960;10.954;2023-04-03T07:26:57;16.00;83.40
10344;DHT22;5217;43.960;10.954;2023-04-03T07:29:25;16.00;83.30
10344;DHT22;5217;43.960;10.954;2023-04-03T07:31:54;16.00;83.40
10344;DHT22;5217;43.960;10.954;2023-04-03T07:34:25;16.10;83.60
10344;DHT22;5217;43.960;10.954;2023-04-03T07:36:53;16.00;83.40
10344;DHT22;5217;43.960;10.954;2023-04-03T07:39:21;16.10;83.80
10344;DHT22;5217;43.960;10.954;2023-04-03T07:41:50;16.10;83.30
10344;DHT22;5217;43.960;10.954;2023-04-03T07:44:18;16.10;83.60
10344;DHT22;5217;43.960;10.954;2023-04-03T07:46:46;16.10;83.30
10344;DHT22;5217;43.960;10.954;2023-04-03T07:49:15;16.10;83.40
10344;DHT22;5217;43.960;10.954;2023-04-03T07:51:46;16.10;83.80
10344;DHT22;5217;43.960;10.954;2023-04-03T07:54:15;16.20;83.30
10344;DHT22;5217;43.960;10.954;2023-04-03T07:56:43;16.20;83.30
10344;DHT22;5217;43.960;10.954;2023-04-03T07:59:12;16.20;82.90
10344;DHT22;5217;43.960;10.954;2023-04-03T08:01:40;16.20;83.20
10344;DHT22;5217;43.960;10.954;2023-04-03T08:04:09;16.20;82.60
10344;DHT22;5217;43.960;10.954;2023-04-03T08:06:38;16.20;82.70
10344;DHT22;5217;43.960;10.954;2023-04-03T08:09:14;16.20;82.80
10344;DHT22;5217;43.960;10.954;2023-04-03T08:11:43;16.30;82.80
10344;DHT22;5217;43.960;10.954;2023-04-03T08:14:12;16.30;82.30
10344;DHT22;5217;43.960;10.954;2023-04-03T08:16:44;16.30;82.20
10344;DHT22;5217;43.960;10.954;2023-04-03T08:19:12;16.30;82.20
10344;DHT22;5217;43.960;10.954;2023-04-03T08:21:53;16.30;82.30
10344;DHT22;5217;43.960;10.954;2023-04-03T08:24:23;16.30;82.80
10344;DHT22;5217;43.960;10.954;2023-04-03T08:26:52;16.30;83.40
10344;DHT22;5217;43.960;10.954;2023-04-03T08:29:20;16.30;84.00
10344;DHT22;5217;43.960;10.954;2023-04-03T08:31:49;16.30;84.50
10344;DHT22;5217;43.960;10.954;2023-04-03T08:34:18;16.30;84.20
10344;DHT22;5217;43.960;10.954;2023-04-03T08:36:47;16.40;83.20
10344;DHT22;5217;43.960;10.954;2023-04-03T08:39:15;16.40;82.60
10344;DHT22;5217;43.960;10.954;2023-04-03T08:41:47;16.40;82.90
10344;DHT22;5217;43.960;10.954;2023-04-03T08:44:21;16.40;82.10
10344;DHT22;5217;43.960;10.954;2023-04-03T08:47:04;16.40;82.00
10344;DHT22;5217;43.960;10.954;2023-04-03T08:49:40;16.40;81.00
10344;DHT22;5217;43.960;10.954;2023-04-03T08:52:16;16.50;81.60
10344;DHT22;5217;43.960;10.954;2023-04-03T08:54:49;16.50;82.10
10344;DHT22;5217;43.960;10.954;2023-04-03T08:57:28;16.50;82.20
10344;DHT22;5217;43.960;10.954;2023-04-03T08:59:59;16.50;81.90
10344;DHT22;5217;43.960;10.954;2023-04-03T09:02:32;16.50;82.50
10344;DHT22;5217;43.960;10.954;2023-04-03T09:05:05;16.50;81.80
10344;DHT22;5217;43.960;10.954;2023-04-03T09:07:43;16.50;81.90
10344;DHT22;5217;43.960;10.954;2023-04-03T09:10:18;16.50;82.20
10344;DHT22;5217;43.960;10.954;2023-04-03T09:12:59;16.60;82.30
10344;DHT22;5217;43.960;10.954;2023-04-03T09:15:29;16.60;82.80
10344;DHT22;5217;43.960;10.954;2023-04-03T09:18:11;16.60;82.90
10344;DHT22;5217;43.960;10.954;2023-04-03T09:20:46;16.50;82.70
10344;DHT22;5217;43.960;10.954;2023-04-03T09:23:24;16.60;82.60
10344;DHT22;5217;43.960;10.954;2023-04-03T09:26:00;16.60;82.30
10344;DHT22;5217;43.960;10.954;2023-04-03T09:28:34;16.60;81.60
10344;DHT22;5217;43.960;10.954;2023-04-03T09:31:19;16.60;81.50
10344;DHT22;5217;43.960;10.954;2023-04-03T09:33:49;16.70;82.00
10344;DHT22;5217;43.960;10.954;2023-04-03T09:36:39;16.70;81.00
10344;DHT22;5217;43.960;10.954;2023-04-03T09:39:12;16.70;80.90
10344;DHT22;5217;43.960;10.954;2023-04-03T09:41:42;16.80;80.90
10344;DHT22;5217;43.960;10.954;2023-04-03T09:44:26;16.80;81.00
10344;DHT22;5217;43.960;10.954;2023-04-03T09:46:54;16.80;80.70
10344;DHT22;5217;43.960;10.954;2023-04-03T09:49:23;16.80;81.00
10344;DHT22;5217;43.960;10.954;2023-04-03T09:51:51;16.80;80.60
10344;DHT22;5217;43.960;10.954;2023-04-03T09:54:41;16.90;79.80
10344;DHT22;5217;43.960;10.954;2023-04-03T09:57:12;16.90;79.80
10344;DHT22;5217;43.960;10.954;2023-04-03T09:59:46;16.90;79.90
10344;DHT22;5217;43.960;10.954;2023-04-03T10:02:28;17.00;80.30
10344;DHT22;5217;43.960;10.954;2023-04-03T10:04:58;17.00;79.60
10344;DHT22;5217;43.960;10.954;2023-04-03T10:07:36;17.00;79.50
10344;DHT22;5217;43.960;10.954;2023-04-03T10:10:20;17.00;79.40
10344;DHT22;5217;43.960;10.954;2023-04-03T10:13:04;17.00;79.60
10344;DHT22;5217;43.960;10.954;2023-04-03T10:15:39;17.10;80.00
10344;DHT22;5217;43.960;10.954;2023-04-03T10:18:26;17.10;78.90
10344;DHT22;5217;43.960;10.954;2023-04-03T10:21:02;17.10;78.70
10344;DHT22;5217;43.960;10.954;2023-04-03T10:23:47;17.20;78.60
10344;DHT22;5217;43.960;10.954;2023-04-03T10:26:28;17.20;78.90
10344;DHT22;5217;43.960;10.954;2023-04-03T10:29:05;17.20;77.90
10344;DHT22;5217;43.960;10.954;2023-04-03T10:31:41;17.20;77.60
10344;DHT22;5217;43.960;10.954;2023-04-03T10:34:18;17.20;77.10
10344;DHT22;5217;43.960;10.954;2023-04-03T10:36:53;17.30;78.00
10344;DHT22;5217;43.960;10.954;2023-04-03T10:39:28;17.30;78.40
10344;DHT22;5217;43.960;10.954;2023-04-03T10:42:03;17.40;79.10
10344;DHT22;5217;43.960;10.954;2023-04-03T10:44:53;17.40;78.10
10344;DHT22;5217;43.960;10.954;2023-04-03T10:47:30;17.50;77.40
10344;DHT22;5217;43.960;10.954;2023-04-03T10:50:15;17.60;77.60
10344;DHT22;5217;43.960;10.954;2023-04-03T10:52:54;17.50;77.70
10344;DHT22;5217;43.960;10.954;2023-04-03T10:55:31;17.60;78.00
10344;DHT22;5217;43.960;10.954;2023-04-03T10:58:02;17.70;79.00
10344;DHT22;5217;43.960;10.954;2023-04-03T11:00:36;17.80;79.20
10344;DHT22;5217;43.960;10.954;2023-04-03T11:03:12;17.80;79.60
10344;DHT22;5217;43.960;10.954;2023-04-03T11:05:44;17.90;79.10
10344;DHT22;5217;43.960;10.954;2023-04-03T11:08:23;18.00;79.50
10344;DHT22;5217;43.960;10.954;2023-04-03T11:10:56;18.20;80.90
10344;DHT22;5217;43.960;10.954;2023-04-03T11:13:30;18.30;80.20
10344;DHT22;5217;43.960;10.954;2023-04-03T11:16:00;18.50;79.90
10344;DHT22;5217;43.960;10.954;2023-04-03T11:18:36;18.70;79.50
10344;DHT22;5217;43.960;10.954;2023-04-03T11:21:10;18.90;79.30
10344;DHT22;5217;43.960;10.954;2023-04-03T11:23:41;19.00;78.80
10344;DHT22;5217;43.960;10.954;2023-04-03T11:26:18;19.00;78.20
10344;DHT22;5217;43.960;10.954;2023-04-03T11:28:52;19.00;77.30
10344;DHT22;5217;43.960;10.954;2023-04-03T11:31:31;19.10;77.20
10344;DHT22;5217;43.960;10.954;2023-04-03T11:34:13;19.10;77.20
10344;DHT22;5217;43.960;10.954;2023-04-03T11:36:46;19.40;76.20
10344;DHT22;5217;43.960;10.954;2023-04-03T11:39:22;19.50;75.90
10344;DHT22;5217;43.960;10.954;2023-04-03T11:41:51;19.80;76.80
10344;DHT22;5217;43.960;10.954;2023-04-03T11:44:37;20.10;77.20
10344;DHT22;5217;43.960;10.954;2023-04-03T11:47:06;20.40;77.50
10344;DHT22;5217;43.960;10.954;2023-04-03T11:49:58;20.70;77.00
10344;DHT22;5217;43.960;10.954;2023-04-03T11:52:59;20.90;75.90
10344;DHT22;5217;43.960;10.954;2023-04-03T11:55:51;21.10;75.10
10344;DHT22;5217;43.960;10.954;2023-04-03T11:58:21;21.20;73.90
10344;DHT22;5217;43.960;10.954;2023-04-03T12:01:05;21.40;73.40
10344;DHT22;5217;43.960;10.954;2023-04-03T12:04:07;21.70;71.60
10344;DHT22;5217;43.960;10.954;2023-04-03T12:10:02;21.70;71.20
10344;DHT22;5217;43.960;10.954;2023-04-03T12:12:58;22.20;70.40
10344;DHT22;5217;43.960;10.954;2023-04-03T12:15:48;22.60;71.10
10344;DHT22;5217;43.960;10.954;2023-04-03T12:18:58;23.10;71.30
10344;DHT22;5217;43.960;10.954;2023-04-03T12:22:05;23.40;71.20
10344;DHT22;5217;43.960;10.954;2023-04-03T12:24:35;23.70;68.50
10344;DHT22;5217;43.960;10.954;2023-04-03T12:27:33;24.00;68.10
10344;DHT22;5217;43.960;10.954;2023-04-03T12:30:13;24.50;67.50
10344;DHT22;5217;43.960;10.954;2023-04-03T12:35:44;25.10;67.40
10344;DHT22;5217;43.960;10.954;2023-04-03T12:38:37;25.20;65.80
10344;DHT22;5217;43.960;10.954;2023-04-03T12:41:31;25.40;63.90
10344;DHT22;5217;43.960;10.954;2023-04-03T12:44:23;25.60;62.80
10344;DHT22;5217;43.960;10.954;2023-04-03T12:46:53;26.00;61.50
10344;DHT22;5217;43.960;10.954;2023-04-03T12:49:38;26.30;61.70
10344;DHT22;5217;43.960;10.954;2023-04-03T12:52:18;26.50;59.40
10344;DHT22;5217;43.960;10.954;2023-04-03T12:54:48;26.80;58.80
10344;DHT22;5217;43.960;10.954;2023-04-03T12:57:19;27.10;58.30
10344;DHT22;5217;43.960;10.954;2023-04-03T12:59:49;27.40;57.40
10344;DHT22;5217;43.960;10.954;2023-04-03T13:02:24;27.60;57.10
10344;DHT22;5217;43.960;10.954;2023-04-03T13:04:56;28.00;57.10
10344;DHT22;5217;43.960;10.954;2023-04-03T13:07:29;28.20;56.50
10344;DHT22;5217;43.960;10.954;2023-04-03T13:10:14;28.40;56.00
10344;DHT22;5217;43.960;10.954;2023-04-03T13:12:48;28.80;55.60
10344;DHT22;5217;43.960;10.954;2023-04-03T13:15:19;29.00;55.10
10344;DHT22;5217;43.960;10.954;2023-04-03T13:17:51;29.30;54.30
10344;DHT22;5217;43.960;10.954;2023-04-03T13:20:24;29.50;53.10
10344;DHT22;5217;43.960;10.954;2023-04-03T13:22:57;29.80;52.60
10344;DHT22;5217;43.960;10.954;2023-04-03T13:25:28;30.00;51.60
10344;DHT22;5217;43.960;10.954;2023-04-03T13:27:58;30.10;51.60
10344;DHT22;5217;43.960;10.954;2023-04-03T13:30:53;30.00;50.50
10344;DHT22;5217;43.960;10.954;2023-04-03T13:33:24;30.20;49.90
10344;DHT22;5217;43.960;10.954;2023-04-03T13:36:00;30.50;49.50
10344;DHT22;5217;43.960;10.954;2023-04-03T13:38:31;30.80;49.60
10344;DHT22;5217;43.960;10.954;2023-04-03T13:41:02;31.00;49.10
10344;DHT22;5217;43.960;10.954;2023-04-03T13:43:34;31.20;49.00
10344;DHT22;5217;43.960;10.954;2023-04-03T13:46:22;31.40;48.60
10344;DHT22;5217;43.960;10.954;2023-04-03T13:48:52;31.30;48.20
10344;DHT22;5217;43.960;10.954;2023-04-03T13:51:23;31.40;47.80
10344;DHT22;5217;43.960;10.954;2023-04-03T13:53:56;31.60;47.70
10344;DHT22;5217;43.960;10.954;2023-04-03T13:56:29;31.40;46.40
10344;DHT22;5217;43.960;10.954;2023-04-03T13:59:03;31.60;46.60
10344;DHT22;5217;43.960;10.954;2023-04-03T14:01:42;31.80;46.30
10344;DHT22;5217;43.960;10.954;2023-04-03T14:04:15;32.20;45.80
10344;DHT22;5217;43.960;10.954;2023-04-03T14:06:44;32.20;45.50
10344;DHT22;5217;43.960;10.954;2023-04-03T14:09:13;32.40;44.40
10344;DHT22;5217;43.960;10.954;2023-04-03T14:11:43;32.60;42.90
10344;DHT22;5217;43.960;10.954;2023-04-03T14:14:14;32.90;43.20
10344;DHT22;5217;43.960;10.954;2023-04-03T14:16:47;33.00;42.30
10344;DHT22;5217;43.960;10.954;2023-04-03T14:19:19;33.20;42.00
10344;DHT22;5217;43.960;10.954;2023-04-03T14:21:49;33.30;41.40
10344;DHT22;5217;43.960;10.954;2023-04-03T14:24:19;33.50;40.60
10344;DHT22;5217;43.960;10.954;2023-04-03T14:26:50;33.60;40.70
10344;DHT22;5217;43.960;10.954;2023-04-03T14:29:20;33.70;40.40
10344;DHT22;5217;43.960;10.954;2023-04-03T14:31:50;33.90;39.90
10344;DHT22;5217;43.960;10.954;2023-04-03T14:34:33;34.00;39.10
10344;DHT22;5217;43.960;10.954;2023-04-03T14:37:01;34.10;39.00
10344;DHT22;5217;43.960;10.954;2023-04-03T14:39:30;34.20;38.90
10344;DHT22;5217;43.960;10.954;2023-04-03T14:41:58;34.30;38.60
10344;DHT22;5217;43.960;10.954;2023-04-03T14:44:27;34.40;38.60
10344;DHT22;5217;43.960;10.954;2023-04-03T14:46:57;34.50;37.50
10344;DHT22;5217;43.960;10.954;2023-04-03T14:49:27;34.60;37.50
10344;DHT22;5217;43.960;10.954;2023-04-03T14:51:56;34.70;37.50
10344;DHT22;5217;43.960;10.954;2023-04-03T14:54:25;34.70;37.20
10344;DHT22;5217;43.960;10.954;2023-04-03T14:56:56;34.80;37.00
10344;DHT22;5217;43.960;10.954;2023-04-03T14:59:25;34.80;36.70
10344;DHT22;5217;43.960;10.954;2023-04-03T15:01:53;34.90;36.10
10344;DHT22;5217;43.960;10.954;2023-04-03T15:04:23;34.90;36.20
10344;DHT22;5217;43.960;10.954;2023-04-03T15:06:52;35.00;35.90
10344;DHT22;5217;43.960;10.954;2023-04-03T15:09:23;35.00;35.50
10344;DHT22;5217;43.960;10.954;2023-04-03T15:11:52;35.10;35.10
10344;DHT22;5217;43.960;10.954;2023-04-03T15:14:21;35.10;34.70
10344;DHT22;5217;43.960;10.954;2023-04-03T15:17:03;35.10;34.50
10344;DHT22;5217;43.960;10.954;2023-04-03T15:19:36;35.10;34.20
10344;DHT22;5217;43.960;10.954;2023-04-03T15:22:05;35.20;34.50
10344;DHT22;5217;43.960;10.954;2023-04-03T15:24:33;35.20;34.40
10344;DHT22;5217;43.960;10.954;2023-04-03T15:27:02;35.30;34.70
10344;DHT22;5217;43.960;10.954;2023-04-03T15:29:30;35.30;34.30
10344;DHT22;5217;43.960;10.954;2023-04-03T15:31:58;35.30;34.40
10344;DHT22;5217;43.960;10.954;2023-04-03T15:34:28;35.30;34.70
10344;DHT22;5217;43.960;10.954;2023-04-03T15:36:58;35.30;34.80
10344;DHT22;5217;43.960;10.954;2023-04-03T15:39:27;35.20;34.10
10344;DHT22;5217;43.960;10.954;2023-04-03T15:41:55;35.10;33.90
10344;DHT22;5217;43.960;10.954;2023-04-03T15:44:26;35.10;34.40
10344;DHT22;5217;43.960;10.954;2023-04-03T15:46:55;35.00;34.50
10344;DHT22;5217;43.960;10.954;2023-04-03T15:49:23;35.00;34.20
10344;DHT22;5217;43.960;10.954;2023-04-03T15:51:51;34.90;34.50
10344;DHT22;5217;43.960;10.954;2023-04-03T15:54:21;34.80;34.80
10344;DHT22;5217;43.960;10.954;2023-04-03T15:56:50;34.50;34.50
10344;DHT22;5217;43.960;10.954;2023-04-03T15:59:19;33.90;34.80
10344;DHT22;5217;43.960;10.954;2023-04-03T16:01:48;33.30;35.10
10344;DHT22;5217;43.960;10.954;2023-04-03T16:04:17;32.60;35.80
10344;DHT22;5217;43.960;10.954;2023-04-03T16:06:48;32.00;36.40